createdAt,value
2022-10-13T00:01:57.747Z,77.22
2022-10-13T00:05:00.109Z,76.76
2022-10-13T00:08:03.216Z,76.10
2022-10-13T00:11:10.806Z,75.62
2022-10-13T00:14:13.163Z,76.38
2022-10-13T00:17:15.655Z,76.51
2022-10-13T00:20:18.177Z,76.45
2022-10-13T00:23:20.644Z,76.63
2022-10-13T00:26:25.136Z,76.81
2022-10-13T00:29:27.483Z,76.72
2022-10-13T00:32:30.094Z,76.41
2022-10-13T00:35:33.707Z,75.90
2022-10-13T00:38:36.164Z,77.44
2022-10-13T00:41:38.509Z,77.48
2022-10-13T00:45:19.771Z,77.56
2022-10-13T00:48:28.636Z,77.20
2022-10-13T00:51:36.399Z,77.98
2022-10-13T00:54:38.908Z,78.50
2022-10-13T00:57:44.400Z,78.50
2022-10-13T01:00:49.137Z,78.72
2022-10-13T01:03:52.692Z,78.20
2022-10-13T01:06:56.559Z,78.59
2022-10-13T01:10:01.123Z,78.89
2022-10-13T01:13:23.458Z,79.11
2022-10-13T01:16:46.799Z,78.57
2022-10-13T01:20:09.378Z,78.56
2022-10-13T01:23:30.055Z,78.38
2022-10-13T01:27:01.994Z,78.44
2022-10-13T01:30:16.583Z,78.92
2022-10-13T01:33:44.288Z,78.62
2022-10-13T01:37:05.272Z,79.13
2022-10-13T01:40:21.354Z,79.82
2022-10-13T01:43:31.837Z,79.55
2022-10-13T01:46:37.646Z,78.90
2022-10-13T01:49:41.056Z,79.73
2022-10-13T01:52:43.898Z,79.70
2022-10-13T01:55:58.609Z,80.14
2022-10-13T01:59:07.857Z,80.75
2022-10-13T02:02:24.396Z,80.89
2022-10-13T02:05:49.440Z,80.96
2022-10-13T02:09:06.330Z,81.77
2022-10-13T02:12:17.409Z,81.00
2022-10-13T02:15:25.625Z,80.83
2022-10-13T02:18:33.718Z,81.22
2022-10-13T02:21:36.076Z,80.84
2022-10-13T02:24:38.725Z,80.87
2022-10-13T02:27:41.620Z,80.97
2022-10-13T02:30:45.609Z,81.05
2022-10-13T02:33:48.067Z,80.38
2022-10-13T02:36:50.425Z,80.49
2022-10-13T02:39:52.888Z,80.20
2022-10-13T02:42:55.383Z,80.67
2022-10-13T02:45:57.744Z,80.76
2022-10-13T02:49:00.312Z,80.86
2022-10-13T02:52:04.418Z,80.92
2022-10-13T02:55:07.478Z,80.73
2022-10-13T02:58:09.882Z,81.23
2022-10-13T03:01:15.421Z,80.98
2022-10-13T03:04:17.974Z,81.35
2022-10-13T03:07:20.396Z,81.91
2022-10-13T03:10:22.937Z,82.05
2022-10-13T03:13:27.611Z,82.51
2022-10-13T03:16:36.064Z,82.58
2022-10-13T03:19:38.548Z,82.48
2022-10-13T03:22:40.850Z,83.19
2022-10-13T03:25:43.307Z,83.69
2022-10-13T03:28:50.644Z,83.96
2022-10-13T03:31:53.038Z,83.78
2022-10-13T03:34:55.395Z,84.22
2022-10-13T03:37:57.800Z,83.76
2022-10-13T03:41:26.799Z,84.11
2022-10-13T03:44:29.158Z,84.02
2022-10-13T03:47:31.662Z,84.78
2022-10-13T03:50:34.120Z,84.91
2022-10-13T03:53:36.748Z,84.80
2022-10-13T03:56:39.843Z,84.96
2022-10-13T03:59:42.424Z,84.70
2022-10-13T04:02:44.820Z,84.85
2022-10-13T04:05:47.684Z,84.52
2022-10-13T04:08:51.749Z,84.23
2022-10-13T04:11:54.330Z,84.45
2022-10-13T04:14:56.832Z,84.18
2022-10-13T04:17:59.152Z,84.24
2022-10-13T04:21:01.633Z,83.94
2022-10-13T04:24:05.383Z,83.76
2022-10-13T04:27:07.850Z,84.04
2022-10-13T04:30:13.472Z,84.33
2022-10-13T04:33:16.093Z,84.78
2022-10-13T04:36:19.525Z,85.17
2022-10-13T04:39:25.461Z,84.52
2022-10-13T04:42:27.922Z,84.58
2022-10-13T04:45:30.471Z,84.73
2022-10-13T04:48:33.051Z,84.59
2022-10-13T04:51:35.468Z,84.84
2022-10-13T04:54:37.933Z,84.70
2022-10-13T04:57:40.403Z,84.52
2022-10-13T05:00:46.877Z,84.48
2022-10-13T05:04:07.940Z,83.90
2022-10-13T05:07:18.023Z,84.01
2022-10-13T05:10:21.170Z,84.37
2022-10-13T05:13:25.321Z,84.51
2022-10-13T05:16:28.032Z,84.27
2022-10-13T05:19:30.985Z,83.84
2022-10-13T05:22:33.789Z,83.56
2022-10-13T05:25:37.872Z,83.21
2022-10-13T05:28:41.124Z,82.90
2022-10-13T05:31:43.735Z,81.53
2022-10-13T05:34:48.938Z,81.45
2022-10-13T05:37:51.615Z,80.83
2022-10-13T05:40:54.060Z,80.53
2022-10-13T05:44:05.175Z,80.77
2022-10-13T05:47:07.879Z,80.36
2022-10-13T05:50:10.575Z,78.88
2022-10-13T05:53:16.067Z,78.98
2022-10-13T05:56:23.875Z,78.70
2022-10-13T05:59:29.692Z,78.57
2022-10-13T06:02:37.889Z,78.76
2022-10-13T06:05:43.101Z,78.74
2022-10-13T06:08:45.809Z,77.90
2022-10-13T06:11:48.331Z,76.42
2022-10-13T06:14:51.410Z,75.54
2022-10-13T06:17:54.104Z,75.62
2022-10-13T06:20:56.644Z,75.26
2022-10-13T06:23:59.209Z,75.44
2022-10-13T06:27:01.665Z,74.47
2022-10-13T06:30:04.837Z,73.20
2022-10-13T06:33:07.325Z,74.04
2022-10-13T06:36:10.841Z,73.67
2022-10-13T06:39:13.271Z,72.93
2022-10-13T06:42:16.362Z,73.32
2022-10-13T06:45:19.642Z,73.61
2022-10-13T06:48:22.190Z,72.74
2022-10-13T06:51:24.729Z,72.61
2022-10-13T06:54:27.230Z,71.76
2022-10-13T06:57:29.719Z,71.84
2022-10-13T07:00:33.969Z,72.63
2022-10-13T07:03:36.410Z,72.44
2022-10-13T07:06:39.008Z,72.77
2022-10-13T07:09:41.561Z,75.15
2022-10-13T07:12:44.023Z,76.37
2022-10-13T07:15:46.690Z,74.73
2022-10-13T07:18:49.458Z,74.17
2022-10-13T07:21:52.295Z,74.25
2022-10-13T07:24:55.347Z,72.57
2022-10-13T07:28:00.795Z,71.63
2022-10-13T07:31:16.375Z,70.08
2022-10-13T07:34:18.799Z,72.17
2022-10-13T07:37:21.932Z,69.98
2022-10-13T07:40:25.272Z,69.22
2022-10-13T07:43:27.836Z,69.56
2022-10-13T07:46:30.765Z,69.30
2022-10-13T07:49:33.178Z,69.64
2022-10-13T07:52:39.651Z,70.08
2022-10-13T07:55:44.187Z,70.23
2022-10-13T07:58:47.427Z,70.52
2022-10-13T08:01:49.972Z,69.91
2022-10-13T08:04:52.666Z,67.78
2022-10-13T08:07:58.298Z,66.24
2022-10-13T08:11:06.781Z,66.18
2022-10-13T08:14:12.091Z,64.09
2022-10-13T08:17:14.655Z,64.19
2022-10-13T08:20:17.347Z,63.74
2022-10-13T08:23:23.839Z,63.85
2022-10-13T08:26:29.370Z,64.58
2022-10-13T08:29:32.156Z,66.13
2022-10-13T08:32:34.648Z,64.89
2022-10-13T08:35:37.514Z,65.56
2022-10-13T08:38:40.714Z,62.30
2022-10-13T08:41:44.676Z,63.49
2022-10-13T08:45:39.803Z,62.47
2022-10-13T08:48:28.013Z,60.99
2022-10-13T08:51:30.476Z,61.13
2022-10-13T08:54:33.511Z,59.52
2022-10-13T08:57:35.939Z,60.17
2022-10-13T09:00:39.077Z,60.41
2022-10-13T09:03:54.500Z,60.51
2022-10-13T09:07:04.761Z,60.37
2022-10-13T09:10:09.858Z,62.01
2022-10-13T09:13:12.342Z,62.04
2022-10-13T09:16:15.423Z,59.61
2022-10-13T09:19:41.017Z,59.45
2022-10-13T09:22:44.887Z,58.56
2022-10-13T09:25:50.178Z,57.01
2022-10-13T09:28:53.165Z,58.16
2022-10-13T09:32:18.405Z,56.40
2022-10-13T09:35:22.646Z,58.23
2022-10-13T09:38:26.027Z,56.51
2022-10-13T09:41:28.476Z,57.16
2022-10-13T09:44:32.095Z,57.67
2022-10-13T09:47:34.961Z,56.08
2022-10-13T09:50:39.888Z,54.33
2022-10-13T09:53:47.685Z,56.30
2022-10-13T09:56:58.079Z,54.21
2022-10-13T10:00:05.111Z,52.81
2022-10-13T10:03:26.167Z,53.67
2022-10-13T10:06:28.546Z,53.61
2022-10-13T10:09:44.915Z,53.06
2022-10-13T10:12:49.323Z,53.61
2022-10-13T10:16:13.492Z,53.86
2022-10-13T10:19:29.095Z,54.20
2022-10-13T10:22:52.787Z,51.53
2022-10-13T10:26:04.256Z,50.70
2022-10-13T10:29:24.593Z,52.19
2022-10-13T10:32:27.104Z,53.79
2022-10-13T10:35:44.382Z,50.13
2022-10-13T10:38:53.299Z,50.11
2022-10-13T10:42:17.220Z,51.92
2022-10-13T10:45:26.244Z,50.59
2022-10-13T10:48:35.068Z,52.22
2022-10-13T10:51:39.362Z,52.33
2022-10-13T10:54:51.108Z,51.05
2022-10-13T10:58:16.900Z,50.33
2022-10-13T11:01:38.250Z,50.85
2022-10-13T11:04:52.752Z,49.17
2022-10-13T11:07:57.369Z,51.96
2022-10-13T11:11:37.953Z,51.19
2022-10-13T11:15:21.758Z,52.74
2022-10-13T11:18:52.505Z,51.55
2022-10-13T11:22:11.243Z,53.70
2022-10-13T11:25:37.327Z,54.73
2022-10-13T11:28:40.407Z,54.36
2022-10-13T11:32:54.046Z,53.35
2022-10-13T11:35:56.701Z,49.97
2022-10-13T11:39:21.222Z,50.67
2022-10-13T11:42:32.627Z,51.44
2022-10-13T11:46:04.834Z,52.76
2022-10-13T11:49:31.142Z,50.23
2022-10-13T11:53:05.242Z,52.07
2022-10-13T11:56:57.526Z,52.47
2022-10-13T12:00:00.033Z,50.44
2022-10-13T12:03:04.992Z,51.81
2022-10-13T12:06:33.451Z,50.63
2022-10-13T12:09:50.083Z,50.54
2022-10-13T12:12:53.799Z,51.57
2022-10-13T12:16:07.189Z,50.12
2022-10-13T12:19:20.415Z,50.03
2022-10-13T12:22:23.184Z,48.98
2022-10-13T12:25:30.426Z,50.39
2022-10-13T12:28:53.599Z,49.55
2022-10-13T12:31:58.228Z,48.77
2022-10-13T12:35:16.239Z,50.89
2022-10-13T12:38:21.749Z,49.33
2022-10-13T12:41:30.910Z,49.41
2022-10-13T12:44:34.006Z,49.48
2022-10-13T12:47:40.107Z,48.65
2022-10-13T12:50:44.167Z,48.95
2022-10-13T12:53:48.031Z,50.59
2022-10-13T12:56:55.352Z,50.44
2022-10-13T12:59:59.055Z,51.08
2022-10-13T13:03:05.491Z,48.77
2022-10-13T13:06:13.537Z,50.24
2022-10-13T13:09:23.125Z,50.35
2022-10-13T13:12:28.645Z,52.00
2022-10-13T13:15:35.709Z,49.80
2022-10-13T13:18:41.799Z,50.88
2022-10-13T13:21:44.288Z,50.46
2022-10-13T13:24:47.362Z,51.57
2022-10-13T13:27:50.220Z,50.64
2022-10-13T13:30:53.898Z,50.41
2022-10-13T13:33:56.354Z,51.13
2022-10-13T13:37:02.014Z,51.67
2022-10-13T13:40:06.638Z,52.54
2022-10-13T13:43:09.527Z,51.53
2022-10-13T13:46:17.150Z,52.54
2022-10-13T13:49:19.536Z,52.69
2022-10-13T13:52:23.324Z,52.04
2022-10-13T13:55:27.491Z,53.02
2022-10-13T13:58:29.886Z,53.38
2022-10-13T14:01:32.520Z,54.33
2022-10-13T14:04:34.985Z,53.74
2022-10-13T14:07:37.370Z,54.27
2022-10-13T14:10:41.206Z,54.82
2022-10-13T14:13:43.656Z,54.90
2022-10-13T14:16:47.729Z,54.09
2022-10-13T14:19:50.176Z,54.11
2022-10-13T14:22:52.635Z,54.27
2022-10-13T14:25:55.043Z,54.32
2022-10-13T14:28:58.364Z,53.16
2022-10-13T14:32:01.058Z,53.48
2022-10-13T14:35:04.444Z,53.46
2022-10-13T14:38:06.885Z,53.91
2022-10-13T14:41:10.638Z,54.75
2022-10-13T14:44:14.059Z,55.18
2022-10-13T14:47:20.730Z,55.60
2022-10-13T14:50:23.382Z,55.49
2022-10-13T14:53:42.380Z,56.24
2022-10-13T14:56:44.930Z,57.29
2022-10-13T14:59:47.589Z,58.59
2022-10-13T15:02:49.915Z,59.80
2022-10-13T15:05:52.204Z,60.51
2022-10-13T15:08:58.974Z,61.16
2022-10-13T15:12:01.494Z,62.22
2022-10-13T15:15:04.491Z,63.65
2022-10-13T15:18:06.877Z,64.63
2022-10-13T15:21:09.347Z,65.32
2022-10-13T15:24:12.003Z,65.23
2022-10-13T15:27:17.831Z,67.12
2022-10-13T15:30:20.359Z,68.06
2022-10-13T15:33:23.275Z,68.26
2022-10-13T15:36:26.201Z,68.88
2022-10-13T15:39:28.533Z,70.05
2022-10-13T15:42:31.003Z,70.81
2022-10-13T15:45:33.660Z,71.61
2022-10-13T15:48:36.077Z,71.68
2022-10-13T15:51:38.410Z,71.99
2022-10-13T15:54:40.969Z,73.86
2022-10-13T15:57:44.171Z,71.91
2022-10-13T16:00:46.696Z,70.46
2022-10-13T16:03:54.719Z,70.98
2022-10-13T16:06:57.276Z,71.41
2022-10-13T16:10:00.232Z,72.02
2022-10-13T16:13:02.695Z,72.71
2022-10-13T16:16:05.275Z,73.33
2022-10-13T16:19:07.613Z,73.79
2022-10-13T16:22:10.075Z,74.67
2022-10-13T16:25:12.552Z,75.09
2022-10-13T16:28:15.235Z,74.33
2022-10-13T16:31:17.785Z,74.87
2022-10-13T16:34:20.644Z,74.67
2022-10-13T16:37:23.805Z,75.45
2022-10-13T16:40:32.734Z,75.74
2022-10-13T16:43:35.754Z,75.91
2022-10-13T16:46:38.187Z,75.95
2022-10-13T16:49:40.693Z,76.29
2022-10-13T16:52:46.140Z,76.99
2022-10-13T16:55:48.643Z,77.16
2022-10-13T16:59:02.232Z,77.83
2022-10-13T17:02:04.694Z,78.43
2022-10-13T17:05:07.588Z,78.49
2022-10-13T17:08:09.984Z,78.99
2022-10-13T17:11:18.623Z,79.71
2022-10-13T17:14:21.033Z,80.05
2022-10-13T17:17:23.513Z,80.86
2022-10-13T17:20:26.178Z,80.63
2022-10-13T17:23:29.790Z,80.44
2022-10-13T17:26:32.149Z,80.44
2022-10-13T17:29:34.480Z,80.78
2022-10-13T17:32:38.709Z,81.00
2022-10-13T17:35:41.071Z,81.47
2022-10-13T17:38:44.284Z,81.26
2022-10-13T17:41:46.710Z,81.52
2022-10-13T17:44:49.661Z,81.70
2022-10-13T17:47:52.139Z,81.66
2022-10-13T17:51:02.350Z,81.86
2022-10-13T17:54:05.103Z,81.81
2022-10-13T17:57:07.512Z,81.66
2022-10-13T18:00:10.545Z,82.17
2022-10-13T18:03:15.706Z,82.29
2022-10-13T18:06:19.518Z,82.34
2022-10-13T18:09:24.280Z,82.50
2022-10-13T18:12:26.623Z,82.91
2022-10-13T18:15:29.111Z,82.56
2022-10-13T18:18:31.764Z,82.75
2022-10-13T18:21:34.169Z,82.85
2022-10-13T18:24:36.611Z,82.55
2022-10-13T18:27:39.000Z,81.57
2022-10-13T18:30:41.392Z,81.08
2022-10-13T18:33:44.200Z,81.60
2022-10-13T18:36:50.366Z,81.21
2022-10-13T18:39:52.746Z,81.08
2022-10-13T18:42:55.123Z,81.37
2022-10-13T18:46:01.410Z,81.33
2022-10-13T18:49:04.962Z,81.46
2022-10-13T18:52:07.416Z,81.34
2022-10-13T18:55:13.560Z,81.12
2022-10-13T18:58:15.976Z,81.51
2022-10-13T19:01:20.814Z,81.29
2022-10-13T19:04:23.267Z,80.90
2022-10-13T19:07:26.126Z,80.81
2022-10-13T19:10:30.829Z,81.18
2022-10-13T19:13:33.240Z,81.14
2022-10-13T19:16:38.527Z,80.95
2022-10-13T19:19:41.478Z,80.94
2022-10-13T19:22:43.890Z,81.04
2022-10-13T19:25:49.369Z,80.92
2022-10-13T19:29:07.749Z,80.95
2022-10-13T19:32:10.106Z,81.08
2022-10-13T19:35:12.770Z,80.52
2022-10-13T19:38:16.172Z,80.28
2022-10-13T19:41:18.816Z,80.24
2022-10-13T19:44:23.115Z,80.68
2022-10-13T19:47:25.522Z,80.62
2022-10-13T19:50:28.344Z,80.60
2022-10-13T19:53:30.752Z,80.67
2022-10-13T19:56:34.068Z,80.53
2022-10-13T19:59:37.518Z,80.62
2022-10-13T20:02:39.839Z,80.78
2022-10-13T20:05:42.452Z,80.58
2022-10-13T20:08:45.431Z,81.19
2022-10-13T20:11:50.421Z,80.78
2022-10-13T20:14:52.797Z,80.14
2022-10-13T20:17:55.150Z,80.04
2022-10-13T20:21:01.755Z,80.53
2022-10-13T20:24:04.221Z,80.87
2022-10-13T20:27:06.527Z,80.73
2022-10-13T20:30:09.997Z,80.81
2022-10-13T20:33:12.416Z,80.55
2022-10-13T20:36:17.358Z,81.17
2022-10-13T20:39:19.774Z,80.98
2022-10-13T20:42:22.168Z,80.89
2022-10-13T20:45:24.894Z,81.10
2022-10-13T20:48:51.111Z,81.66
2022-10-13T20:51:53.530Z,81.07
2022-10-13T20:54:55.874Z,80.99
2022-10-13T20:57:59.253Z,80.76
2022-10-13T21:01:02.461Z,80.83
2022-10-13T21:04:05.226Z,81.52
2022-10-13T21:07:07.630Z,81.82
2022-10-13T21:10:10.227Z,81.47
2022-10-13T21:13:14.039Z,81.95
2022-10-13T21:16:19.206Z,82.58
2022-10-13T21:19:21.801Z,83.14
2022-10-13T21:22:24.160Z,83.75
2022-10-13T21:25:28.005Z,84.27
2022-10-13T21:28:37.348Z,84.65
2022-10-13T21:31:39.675Z,85.29
2022-10-13T21:34:42.030Z,85.91
2022-10-13T21:37:44.390Z,85.89
2022-10-13T21:40:49.378Z,86.08
2022-10-13T21:43:56.118Z,86.64
2022-10-13T21:46:58.574Z,86.98
2022-10-13T21:50:01.575Z,87.30
2022-10-13T21:53:03.960Z,87.18
2022-10-13T21:56:08.241Z,87.51
2022-10-13T21:59:12.677Z,87.68
2022-10-13T22:02:15.139Z,87.86
2022-10-13T22:05:17.588Z,88.29
2022-10-13T22:08:37.680Z,88.17
2022-10-13T22:11:44.993Z,87.47
2022-10-13T22:14:47.428Z,86.75
2022-10-13T22:17:49.792Z,86.95
2022-10-13T22:20:52.819Z,86.92
2022-10-13T22:23:59.756Z,86.85
2022-10-13T22:27:02.116Z,86.91
2022-10-13T22:30:04.797Z,86.71
2022-10-13T22:33:07.273Z,86.59
2022-10-13T22:36:31.665Z,86.33
2022-10-13T22:39:34.170Z,86.56
2022-10-13T22:42:44.064Z,86.48
2022-10-13T22:45:50.983Z,86.79
2022-10-13T22:48:53.853Z,86.78
2022-10-13T22:51:56.231Z,87.03
2022-10-13T22:54:58.541Z,86.83
2022-10-13T22:58:00.855Z,87.45
2022-10-13T23:01:08.939Z,87.76
2022-10-13T23:04:11.331Z,87.74
2022-10-13T23:07:13.704Z,88.47
2022-10-13T23:10:17.423Z,89.03
2022-10-13T23:13:19.812Z,88.59
2022-10-13T23:16:26.441Z,88.28
2022-10-13T23:19:28.869Z,89.11
2022-10-13T23:22:31.406Z,89.13
2022-10-13T23:25:34.972Z,89.35
2022-10-13T23:28:38.222Z,89.45
2022-10-13T23:31:40.653Z,89.67
2022-10-13T23:34:42.998Z,90.22
2022-10-13T23:37:45.691Z,90.31
2022-10-13T23:40:49.439Z,90.20
2022-10-13T23:43:52.236Z,90.49
2022-10-13T23:46:54.532Z,90.41
2022-10-13T23:49:56.925Z,90.36
2022-10-13T23:52:59.345Z,89.77
2022-10-13T23:56:03.937Z,89.08
2022-10-13T23:59:06.519Z,89.17
